sensor_id;sensor_type;location;lat;lon;timestamp;pressure;altitude;pressure_sealevel;temperature;humidity
80405;BME280;69733;48.744;9.176;2023-05-07T00:02:01;96608.72;;;13.21;64.85
80405;BME280;69733;48.744;9.176;2023-05-07T00:04:26;96607.03;;;13.15;64.84
80405;BME280;69733;48.744;9.176;2023-05-07T00:06:53;96611.28;;;13.11;65.27
80405;BME280;69733;48.744;9.176;2023-05-07T00:09:18;96613.63;;;13.07;65.55
80405;BME280;69733;48.744;9.176;2023-05-07T00:11:43;96607.69;;;13.05;65.42
80405;BME280;69733;48.744;9.176;2023-05-07T00:14:09;96611.09;;;13.01;65.42
80405;BME280;69733;48.744;9.176;2023-05-07T00:16:34;96616.13;;;12.97;65.43
80405;BME280;69733;48.744;9.176;2023-05-07T00:18:59;96608.38;;;12.95;65.55
80405;BME280;69733;48.744;9.176;2023-05-07T00:21:25;96608.88;;;12.92;66.04
80405;BME280;69733;48.744;9.176;2023-05-07T00:23:54;96605.63;;;12.90;65.95
80405;BME280;69733;48.744;9.176;2023-05-07T00:26:19;96608.56;;;12.89;65.82
80405;BME280;69733;48.744;9.176;2023-05-07T00:28:45;96602.66;;;12.87;65.97
80405;BME280;69733;48.744;9.176;2023-05-07T00:31:10;96605.59;;;12.85;66.31
80405;BME280;69733;48.744;9.176;2023-05-07T00:33:36;96604.19;;;12.83;66.25
80405;BME280;69733;48.744;9.176;2023-05-07T00:36:01;96600.97;;;12.81;66.35
80405;BME280;69733;48.744;9.176;2023-05-07T00:38:27;96594.00;;;12.80;66.28
80405;BME280;69733;48.744;9.176;2023-05-07T00:40:52;96599.34;;;12.80;66.58
80405;BME280;69733;48.744;9.176;2023-05-07T00:43:17;96592.88;;;12.76;66.51
80405;BME280;69733;48.744;9.176;2023-05-07T00:45:43;96589.66;;;12.74;66.84
80405;BME280;69733;48.744;9.176;2023-05-07T00:48:08;96590.72;;;12.73;66.78
80405;BME280;69733;48.744;9.176;2023-05-07T00:50:33;96584.03;;;12.70;67.03
80405;BME280;69733;48.744;9.176;2023-05-07T00:52:59;96581.59;;;12.69;66.98
80405;BME280;69733;48.744;9.176;2023-05-07T00:55:25;96586.38;;;12.67;67.16
80405;BME280;69733;48.744;9.176;2023-05-07T00:57:51;96578.03;;;12.63;67.33
80405;BME280;69733;48.744;9.176;2023-05-07T01:00:16;96582.56;;;12.63;67.46
80405;BME280;69733;48.744;9.176;2023-05-07T01:02:43;96580.13;;;12.61;67.47
80405;BME280;69733;48.744;9.176;2023-05-07T01:05:13;96580.41;;;12.60;67.46
80405;BME280;69733;48.744;9.176;2023-05-07T01:07:40;96581.44;;;12.59;67.56
80405;BME280;69733;48.744;9.176;2023-05-07T01:10:06;96578.72;;;12.54;67.73
80405;BME280;69733;48.744;9.176;2023-05-07T01:12:33;96584.06;;;12.54;67.56
80405;BME280;69733;48.744;9.176;2023-05-07T01:14:59;96583.47;;;12.52;67.82
80405;BME280;69733;48.744;9.176;2023-05-07T01:17:25;96590.94;;;12.50;67.94
80405;BME280;69733;48.744;9.176;2023-05-07T01:19:50;96585.03;;;12.47;68.06
80405;BME280;69733;48.744;9.176;2023-05-07T01:22:16;96586.88;;;12.47;68.14
80405;BME280;69733;48.744;9.176;2023-05-07T01:24:46;96585.53;;;12.44;67.98
80405;BME280;69733;48.744;9.176;2023-05-07T01:27:11;96580.44;;;12.43;68.21
80405;BME280;69733;48.744;9.176;2023-05-07T01:29:37;96578.25;;;12.40;68.23
80405;BME280;69733;48.744;9.176;2023-05-07T01:32:02;96575.84;;;12.38;68.25
80405;BME280;69733;48.744;9.176;2023-05-07T01:34:31;96579.53;;;12.37;68.38
80405;BME280;69733;48.744;9.176;2023-05-07T01:36:58;96575.25;;;12.36;68.54
80405;BME280;69733;48.744;9.176;2023-05-07T01:39:25;96573.66;;;12.35;68.50
80405;BME280;69733;48.744;9.176;2023-05-07T01:41:53;96576.00;;;12.32;68.81
80405;BME280;69733;48.744;9.176;2023-05-07T01:44:19;96578.69;;;12.32;68.81
80405;BME280;69733;48.744;9.176;2023-05-07T01:46:45;96571.94;;;12.29;69.04
80405;BME280;69733;48.744;9.176;2023-05-07T01:49:11;96572.22;;;12.28;68.72
80405;BME280;69733;48.744;9.176;2023-05-07T01:51:36;96573.25;;;12.27;68.97
80405;BME280;69733;48.744;9.176;2023-05-07T01:54:02;96573.50;;;12.25;68.80
80405;BME280;69733;48.744;9.176;2023-05-07T01:56:27;96573.75;;;12.24;69.31
80405;BME280;69733;48.744;9.176;2023-05-07T01:58:52;96572.38;;;12.21;69.40
80405;BME280;69733;48.744;9.176;2023-05-07T02:01:18;96576.31;;;12.19;69.05
80405;BME280;69733;48.744;9.176;2023-05-07T02:03:43;96569.63;;;12.16;69.39
80405;BME280;69733;48.744;9.176;2023-05-07T02:06:09;96577.06;;;12.14;69.35
80405;BME280;69733;48.744;9.176;2023-05-07T02:08:34;96574.41;;;12.14;69.69
80405;BME280;69733;48.744;9.176;2023-05-07T02:11:00;96573.00;;;12.12;69.34
80405;BME280;69733;48.744;9.176;2023-05-07T02:13:28;96580.22;;;12.11;69.49
80405;BME280;69733;48.744;9.176;2023-05-07T02:15:54;96576.16;;;12.09;69.93
80405;BME280;69733;48.744;9.176;2023-05-07T02:18:19;96576.16;;;12.09;70.08
80405;BME280;69733;48.744;9.176;2023-05-07T02:20:45;96579.09;;;12.07;69.92
80405;BME280;69733;48.744;9.176;2023-05-07T02:23:10;96583.63;;;12.07;69.94
80405;BME280;69733;48.744;9.176;2023-05-07T02:25:35;96582.81;;;12.06;69.83
80405;BME280;69733;48.744;9.176;2023-05-07T02:28:00;96577.47;;;12.06;69.24
80405;BME280;69733;48.744;9.176;2023-05-07T02:30:26;96578.28;;;12.07;70.11
80405;BME280;69733;48.744;9.176;2023-05-07T02:32:51;96584.66;;;12.06;70.13
80405;BME280;69733;48.744;9.176;2023-05-07T02:35:17;96577.97;;;12.03;69.96
80405;BME280;69733;48.744;9.176;2023-05-07T02:37:42;96571.25;;;12.01;70.28
80405;BME280;69733;48.744;9.176;2023-05-07T02:40:08;96576.28;;;11.97;70.17
80405;BME280;69733;48.744;9.176;2023-05-07T02:42:33;96578.63;;;11.93;70.13
80405;BME280;69733;48.744;9.176;2023-05-07T02:44:58;96572.38;;;11.88;70.39
80405;BME280;69733;48.744;9.176;2023-05-07T02:47:24;96582.72;;;11.84;70.62
80405;BME280;69733;48.744;9.176;2023-05-07T02:49:52;96576.00;;;11.82;70.66
80405;BME280;69733;48.744;9.176;2023-05-07T02:52:17;96578.59;;;11.77;70.71
80405;BME280;69733;48.744;9.176;2023-05-07T02:54:43;96583.59;;;11.73;71.20
80405;BME280;69733;48.744;9.176;2023-05-07T02:57:08;96587.56;;;11.71;70.95
80405;BME280;69733;48.744;9.176;2023-05-07T02:59:33;96583.72;;;11.67;70.88
80405;BME280;69733;48.744;9.176;2023-05-07T03:01:59;96584.75;;;11.66;70.96
80405;BME280;69733;48.744;9.176;2023-05-07T03:04:24;96583.16;;;11.65;71.39
80405;BME280;69733;48.744;9.176;2023-05-07T03:06:49;96571.09;;;11.62;71.35
80405;BME280;69733;48.744;9.176;2023-05-07T03:09:15;96566.84;;;11.61;70.97
80405;BME280;69733;48.744;9.176;2023-05-07T03:11:40;96551.56;;;11.57;71.38
80405;BME280;69733;48.744;9.176;2023-05-07T03:14:05;96540.56;;;11.53;71.63
80405;BME280;69733;48.744;9.176;2023-05-07T03:16:30;96548.47;;;11.48;71.35
80405;BME280;69733;48.744;9.176;2023-05-07T03:18:56;96541.22;;;11.43;71.57
80405;BME280;69733;48.744;9.176;2023-05-07T03:21:21;96548.06;;;11.39;71.58
80405;BME280;69733;48.744;9.176;2023-05-07T03:23:47;96542.16;;;11.37;71.91
80405;BME280;69733;48.744;9.176;2023-05-07T03:26:12;96547.16;;;11.34;71.85
80405;BME280;69733;48.744;9.176;2023-05-07T03:28:37;96556.69;;;11.30;71.94
80405;BME280;69733;48.744;9.176;2023-05-07T03:31:02;96547.31;;;11.27;71.82
80405;BME280;69733;48.744;9.176;2023-05-07T03:33:28;96545.13;;;11.24;72.19
80405;BME280;69733;48.744;9.176;2023-05-07T03:35:53;96549.06;;;11.22;71.93
80405;BME280;69733;48.744;9.176;2023-05-07T03:38:19;96553.81;;;11.20;72.27
80405;BME280;69733;48.744;9.176;2023-05-07T03:40:44;96560.44;;;11.17;71.98
80405;BME280;69733;48.744;9.176;2023-05-07T03:43:09;96563.09;;;11.17;72.10
80405;BME280;69733;48.744;9.176;2023-05-07T03:45:35;96559.88;;;11.15;72.00
80405;BME280;69733;48.744;9.176;2023-05-07T03:48:00;96558.03;;;11.16;72.10
80405;BME280;69733;48.744;9.176;2023-05-07T03:50:25;96560.69;;;11.16;72.19
80405;BME280;69733;48.744;9.176;2023-05-07T03:52:51;96565.19;;;11.15;72.07
80405;BME280;69733;48.744;9.176;2023-05-07T03:55:16;96565.44;;;11.14;72.19
80405;BME280;69733;48.744;9.176;2023-05-07T03:57:41;96562.44;;;11.10;72.64
80405;BME280;69733;48.744;9.176;2023-05-07T04:00:07;96563.47;;;11.09;72.09
80405;BME280;69733;48.744;9.176;2023-05-07T04:02:33;96564.53;;;11.08;72.45
80405;BME280;69733;48.744;9.176;2023-05-07T04:04:58;96561.88;;;11.08;72.30
80405;BME280;69733;48.744;9.176;2023-05-07T04:07:23;96563.13;;;11.06;72.52
80405;BME280;69733;48.744;9.176;2023-05-07T04:09:49;96570.09;;;11.07;72.35
80405;BME280;69733;48.744;9.176;2023-05-07T04:12:14;96569.84;;;11.08;72.46
80405;BME280;69733;48.744;9.176;2023-05-07T04:14:40;96564.53;;;11.08;72.40
80405;BME280;69733;48.744;9.176;2023-05-07T04:17:05;96563.47;;;11.09;72.79
80405;BME280;69733;48.744;9.176;2023-05-07T04:19:33;96565.44;;;11.14;72.30
80405;BME280;69733;48.744;9.176;2023-05-07T04:21:58;96572.94;;;11.17;72.16
80405;BME280;69733;48.744;9.176;2023-05-07T04:24:23;96567.94;;;11.20;72.42
80405;BME280;69733;48.744;9.176;2023-05-07T04:26:49;96578.69;;;11.25;72.29
80405;BME280;69733;48.744;9.176;2023-05-07T04:29:16;96574.03;;;11.32;72.15
80405;BME280;69733;48.744;9.176;2023-05-07T04:31:41;96586.41;;;11.38;72.32
80405;BME280;69733;48.744;9.176;2023-05-07T04:34:09;96584.66;;;11.44;71.87
80405;BME280;69733;48.744;9.176;2023-05-07T04:36:36;96579.66;;;11.47;72.10
80405;BME280;69733;48.744;9.176;2023-05-07T04:39:02;96577.66;;;11.55;71.87
80405;BME280;69733;48.744;9.176;2023-05-07T04:41:28;96582.81;;;11.61;71.99
80405;BME280;69733;48.744;9.176;2023-05-07T04:43:53;96588.50;;;11.65;72.18
80405;BME280;69733;48.744;9.176;2023-05-07T04:46:18;96586.16;;;11.68;72.04
80405;BME280;69733;48.744;9.176;2023-05-07T04:48:43;96582.22;;;11.71;72.00
80405;BME280;69733;48.744;9.176;2023-05-07T04:51:09;96588.09;;;11.73;72.05
80405;BME280;69733;48.744;9.176;2023-05-07T04:53:34;96591.34;;;11.75;72.10
80405;BME280;69733;48.744;9.176;2023-05-07T04:55:59;96599.09;;;11.76;72.21
80405;BME280;69733;48.744;9.176;2023-05-07T04:58:25;96582.88;;;11.78;72.37
80405;BME280;69733;48.744;9.176;2023-05-07T05:00:50;96584.50;;;11.79;72.25
80405;BME280;69733;48.744;9.176;2023-05-07T05:03:16;96593.63;;;11.83;72.38
80405;BME280;69733;48.744;9.176;2023-05-07T05:05:41;96595.66;;;11.92;72.35
80405;BME280;69733;48.744;9.176;2023-05-07T05:08:07;96595.41;;;12.11;71.99
80405;BME280;69733;48.744;9.176;2023-05-07T05:10:32;96601.06;;;12.31;71.83
80405;BME280;69733;48.744;9.176;2023-05-07T05:12:57;96602.81;;;12.59;71.40
80405;BME280;69733;48.744;9.176;2023-05-07T05:15:23;96610.75;;;12.92;71.20
80405;BME280;69733;48.744;9.176;2023-05-07T05:17:48;96606.59;;;13.23;70.76
80405;BME280;69733;48.744;9.176;2023-05-07T05:20:13;96608.31;;;13.56;70.23
80405;BME280;69733;48.744;9.176;2023-05-07T05:22:39;96608.31;;;14.14;69.29
80405;BME280;69733;48.744;9.176;2023-05-07T05:25:05;96607.00;;;14.90;68.32
80405;BME280;69733;48.744;9.176;2023-05-07T05:27:30;96616.19;;;15.77;66.91
80405;BME280;69733;48.744;9.176;2023-05-07T05:29:56;96616.53;;;16.61;65.84
80405;BME280;69733;48.744;9.176;2023-05-07T05:32:21;96609.69;;;17.14;65.67
80405;BME280;69733;48.744;9.176;2023-05-07T05:34:46;96613.34;;;17.38;65.39
80405;BME280;69733;48.744;9.176;2023-05-07T05:37:12;96608.16;;;18.01;64.64
80405;BME280;69733;48.744;9.176;2023-05-07T05:39:37;96616.22;;;18.74;63.68
80405;BME280;69733;48.744;9.176;2023-05-07T05:42:02;96608.75;;;19.42;62.83
80405;BME280;69733;48.744;9.176;2023-05-07T05:44:28;96606.72;;;20.09;61.73
80405;BME280;69733;48.744;9.176;2023-05-07T05:46:53;96606.34;;;20.53;61.88
80405;BME280;69733;48.744;9.176;2023-05-07T05:49:20;96609.44;;;20.92;61.55
80405;BME280;69733;48.744;9.176;2023-05-07T05:51:46;96603.06;;;21.29;61.53
80405;BME280;69733;48.744;9.176;2023-05-07T05:54:11;96605.22;;;21.81;60.79
80405;BME280;69733;48.744;9.176;2023-05-07T05:56:37;96618.41;;;22.32;60.22
80405;BME280;69733;48.744;9.176;2023-05-07T05:59:02;96623.28;;;22.66;59.95
80405;BME280;69733;48.744;9.176;2023-05-07T06:01:27;96620.34;;;23.07;59.36
80405;BME280;69733;48.744;9.176;2023-05-07T06:03:53;96625.16;;;23.50;58.93
80405;BME280;69733;48.744;9.176;2023-05-07T06:08:43;96624.78;;;23.99;58.22
80405;BME280;69733;48.744;9.176;2023-05-07T06:11:09;96638.09;;;24.01;58.13
80405;BME280;69733;48.744;9.176;2023-05-07T06:13:34;96635.72;;;24.16;58.18
80405;BME280;69733;48.744;9.176;2023-05-07T06:16:00;96630.47;;;24.37;57.06
80405;BME280;69733;48.744;9.176;2023-05-07T06:18:25;96623.22;;;24.67;56.56
80405;BME280;69733;48.744;9.176;2023-05-07T06:20:53;96628.38;;;24.43;56.76
80405;BME280;69733;48.744;9.176;2023-05-07T06:23:18;96625.13;;;24.06;56.76
80405;BME280;69733;48.744;9.176;2023-05-07T06:25:50;96626.69;;;23.82;56.54
80405;BME280;69733;48.744;9.176;2023-05-07T06:28:15;96638.97;;;23.62;56.37
80405;BME280;69733;48.744;9.176;2023-05-07T06:30:41;96631.41;;;23.50;55.63
80405;BME280;69733;48.744;9.176;2023-05-07T06:33:06;96632.06;;;23.25;55.19
80405;BME280;69733;48.744;9.176;2023-05-07T06:35:32;96631.47;;;22.97;54.98
80405;BME280;69733;48.744;9.176;2023-05-07T06:37:57;96645.66;;;22.50;54.78
80405;BME280;69733;48.744;9.176;2023-05-07T06:40:22;96639.41;;;22.05;54.73
80405;BME280;69733;48.744;9.176;2023-05-07T06:42:48;96643.16;;;21.68;54.45
80405;BME280;69733;48.744;9.176;2023-05-07T06:45:13;96638.94;;;21.34;54.35
80405;BME280;69733;48.744;9.176;2023-05-07T06:47:38;96646.09;;;20.98;54.33
80405;BME280;69733;48.744;9.176;2023-05-07T06:50:04;96639.38;;;20.82;53.92
80405;BME280;69733;48.744;9.176;2023-05-07T06:52:29;96640.78;;;21.39;52.81
80405;BME280;69733;48.744;9.176;2023-05-07T06:54:55;96640.44;;;22.31;51.45
80405;BME280;69733;48.744;9.176;2023-05-07T06:57:20;96646.06;;;23.10;50.21
80405;BME280;69733;48.744;9.176;2023-05-07T06:59:45;96636.31;;;23.88;49.09
80405;BME280;69733;48.744;9.176;2023-05-07T07:02:11;96637.78;;;24.45;48.07
80405;BME280;69733;48.744;9.176;2023-05-07T07:04:36;96636.44;;;25.11;47.07
80405;BME280;69733;48.744;9.176;2023-05-07T07:07:01;96629.00;;;25.67;46.52
80405;BME280;69733;48.744;9.176;2023-05-07T07:09:27;96634.22;;;26.31;45.52
80405;BME280;69733;48.744;9.176;2023-05-07T07:11:52;96627.22;;;26.62;44.90
80405;BME280;69733;48.744;9.176;2023-05-07T07:14:17;96633.78;;;26.82;44.56
80405;BME280;69733;48.744;9.176;2023-05-07T07:16:42;96634.34;;;27.20;44.00
80405;BME280;69733;48.744;9.176;2023-05-07T07:19:08;96636.63;;;27.43;43.65
80405;BME280;69733;48.744;9.176;2023-05-07T07:21:33;96635.31;;;27.61;42.41
80405;BME280;69733;48.744;9.176;2023-05-07T07:23:58;96633.69;;;27.96;42.23
80405;BME280;69733;48.744;9.176;2023-05-07T07:26:24;96632.53;;;28.22;41.47
80405;BME280;69733;48.744;9.176;2023-05-07T07:28:49;96630.59;;;28.62;40.64
80405;BME280;69733;48.744;9.176;2023-05-07T07:31:14;96637.13;;;28.85;39.92
80405;BME280;69733;48.744;9.176;2023-05-07T07:33:40;96632.13;;;28.87;39.03
80405;BME280;69733;48.744;9.176;2023-05-07T07:36:06;96631.13;;;28.95;38.66
80405;BME280;69733;48.744;9.176;2023-05-07T07:38:32;96632.03;;;28.99;38.32
80405;BME280;69733;48.744;9.176;2023-05-07T07:40:57;96636.13;;;29.21;37.42
80405;BME280;69733;48.744;9.176;2023-05-07T07:43:23;96631.31;;;29.02;36.98
80405;BME280;69733;48.744;9.176;2023-05-07T07:45:48;96642.31;;;29.18;37.02
80405;BME280;69733;48.744;9.176;2023-05-07T07:48:14;96642.47;;;29.53;35.89
80405;BME280;69733;48.744;9.176;2023-05-07T07:50:39;96647.50;;;29.35;35.43
80405;BME280;69733;48.744;9.176;2023-05-07T07:53:04;96643.69;;;28.96;35.64
80405;BME280;69733;48.744;9.176;2023-05-07T07:55:30;96644.38;;;29.21;35.84
80405;BME280;69733;48.744;9.176;2023-05-07T07:57:56;96643.44;;;29.60;34.81
80405;BME280;69733;48.744;9.176;2023-05-07T08:00:21;96633.06;;;29.70;34.45
80405;BME280;69733;48.744;9.176;2023-05-07T08:02:47;96644.84;;;29.86;34.44
80405;BME280;69733;48.744;9.176;2023-05-07T08:05:12;96641.88;;;30.10;33.95
80405;BME280;69733;48.744;9.176;2023-05-07T08:07:37;96638.16;;;30.37;33.77
80405;BME280;69733;48.744;9.176;2023-05-07T08:10:03;96639.88;;;30.42;33.49
80405;BME280;69733;48.744;9.176;2023-05-07T08:12:28;96643.50;;;30.46;33.59
80405;BME280;69733;48.744;9.176;2023-05-07T08:14:54;96652.38;;;30.24;33.35
80405;BME280;69733;48.744;9.176;2023-05-07T08:17:19;96641.50;;;30.11;33.26
80405;BME280;69733;48.744;9.176;2023-05-07T08:19:47;96649.31;;;30.09;33.26
80405;BME280;69733;48.744;9.176;2023-05-07T08:22:12;96659.03;;;30.23;32.93
80405;BME280;69733;48.744;9.176;2023-05-07T08:24:38;96650.66;;;30.35;32.63
80405;BME280;69733;48.744;9.176;2023-05-07T08:27:03;96648.03;;;30.77;32.53
80405;BME280;69733;48.744;9.176;2023-05-07T08:29:28;96651.81;;;31.30;31.75
80405;BME280;69733;48.744;9.176;2023-05-07T08:31:53;96650.63;;;31.73;31.45
80405;BME280;69733;48.744;9.176;2023-05-07T08:34:19;96650.78;;;32.06;31.05
80405;BME280;69733;48.744;9.176;2023-05-07T08:36:44;96646.53;;;32.12;31.12
80405;BME280;69733;48.744;9.176;2023-05-07T08:39:12;96647.66;;;32.08;30.88
80405;BME280;69733;48.744;9.176;2023-05-07T08:41:37;96653.53;;;31.83;30.99
80405;BME280;69733;48.744;9.176;2023-05-07T08:44:03;96651.66;;;31.65;31.11
80405;BME280;69733;48.744;9.176;2023-05-07T08:46:32;96650.59;;;31.50;30.89
80405;BME280;69733;48.744;9.176;2023-05-07T08:48:57;96653.44;;;31.53;31.08
80405;BME280;69733;48.744;9.176;2023-05-07T08:51:23;96647.06;;;31.72;30.81
80405;BME280;69733;48.744;9.176;2023-05-07T08:53:49;96656.53;;;31.75;30.80
80405;BME280;69733;48.744;9.176;2023-05-07T08:56:16;96648.84;;;31.84;30.36
80405;BME280;69733;48.744;9.176;2023-05-07T08:58:43;96653.22;;;32.11;30.11
80405;BME280;69733;48.744;9.176;2023-05-07T09:01:13;96653.69;;;32.17;29.79
80405;BME280;69733;48.744;9.176;2023-05-07T09:03:39;96656.00;;;32.41;29.63
80405;BME280;69733;48.744;9.176;2023-05-07T09:06:05;96653.66;;;32.43;29.66
80405;BME280;69733;48.744;9.176;2023-05-07T09:08:33;96650.78;;;32.62;29.85
80405;BME280;69733;48.744;9.176;2023-05-07T09:10:58;96643.03;;;32.71;29.76
80405;BME280;69733;48.744;9.176;2023-05-07T09:13:24;96646.22;;;32.73;29.63
80405;BME280;69733;48.744;9.176;2023-05-07T09:15:49;96644.09;;;32.96;29.42
80405;BME280;69733;48.744;9.176;2023-05-07T09:18:15;96645.16;;;32.85;29.15
80405;BME280;69733;48.744;9.176;2023-05-07T09:20:40;96653.91;;;32.61;29.40
80405;BME280;69733;48.744;9.176;2023-05-07T09:23:07;96635.53;;;32.72;28.70
80405;BME280;69733;48.744;9.176;2023-05-07T09:25:33;96637.84;;;32.66;29.01
80405;BME280;69733;48.744;9.176;2023-05-07T09:28:00;96633.59;;;32.72;28.54
80405;BME280;69733;48.744;9.176;2023-05-07T09:30:32;96627.72;;;32.77;28.41
80405;BME280;69733;48.744;9.176;2023-05-07T09:32:59;96629.31;;;32.78;28.14
80405;BME280;69733;48.744;9.176;2023-05-07T09:35:25;96627.47;;;32.89;27.97
80405;BME280;69733;48.744;9.176;2023-05-07T09:37:57;96630.25;;;32.89;28.74
80405;BME280;69733;48.744;9.176;2023-05-07T09:40:28;96625.44;;;32.53;27.83
80405;BME280;69733;48.744;9.176;2023-05-07T09:42:54;96624.00;;;32.59;27.72
80405;BME280;69733;48.744;9.176;2023-05-07T09:45:24;96622.53;;;32.42;27.92
80405;BME280;69733;48.744;9.176;2023-05-07T09:47:54;96630.81;;;32.42;28.16
80405;BME280;69733;48.744;9.176;2023-05-07T09:50:24;96635.78;;;32.30;28.27
80405;BME280;69733;48.744;9.176;2023-05-07T09:52:51;96626.00;;;32.06;27.90
80405;BME280;69733;48.744;9.176;2023-05-07T09:55:17;96629.66;;;31.65;28.19
80405;BME280;69733;48.744;9.176;2023-05-07T09:57:44;96636.50;;;31.51;28.29
80405;BME280;69733;48.744;9.176;2023-05-07T10:00:11;96628.03;;;31.60;27.83
80405;BME280;69733;48.744;9.176;2023-05-07T10:02:39;96634.63;;;31.82;27.97
80405;BME280;69733;48.744;9.176;2023-05-07T10:05:12;96631.00;;;31.74;28.08
80405;BME280;69733;48.744;9.176;2023-05-07T10:07:39;96626.25;;;31.75;28.23
80405;BME280;69733;48.744;9.176;2023-05-07T10:10:06;96621.31;;;31.84;28.74
80405;BME280;69733;48.744;9.176;2023-05-07T10:12:32;96627.44;;;31.74;28.15
80405;BME280;69733;48.744;9.176;2023-05-07T10:15:07;96612.66;;;31.59;28.25
80405;BME280;69733;48.744;9.176;2023-05-07T10:17:38;96610.34;;;31.87;27.63
80405;BME280;69733;48.744;9.176;2023-05-07T10:20:23;96604.56;;;31.96;28.12
80405;BME280;69733;48.744;9.176;2023-05-07T10:22:51;96601.03;;;31.95;27.83
80405;BME280;69733;48.744;9.176;2023-05-07T10:25:45;96595.72;;;31.83;27.65
80405;BME280;69733;48.744;9.176;2023-05-07T10:28:12;96595.31;;;31.81;27.95
80405;BME280;69733;48.744;9.176;2023-05-07T10:33:27;96597.72;;;31.37;28.21
80405;BME280;69733;48.744;9.176;2023-05-07T10:35:57;96596.63;;;31.19;28.29
80405;BME280;69733;48.744;9.176;2023-05-07T10:38:24;96591.69;;;31.05;28.71
80405;BME280;69733;48.744;9.176;2023-05-07T10:40:51;96587.72;;;31.03;28.63
80405;BME280;69733;48.744;9.176;2023-05-07T10:43:16;96594.66;;;30.97;28.82
80405;BME280;69733;48.744;9.176;2023-05-07T10:45:41;96584.91;;;30.80;29.32
80405;BME280;69733;48.744;9.176;2023-05-07T10:48:16;96587.94;;;30.75;29.33
80405;BME280;69733;48.744;9.176;2023-05-07T10:50:45;96590.78;;;30.59;29.37
80405;BME280;69733;48.744;9.176;2023-05-07T10:55:41;96574.50;;;30.32;29.89
80405;BME280;69733;48.744;9.176;2023-05-07T10:58:36;96576.38;;;30.47;29.59
80405;BME280;69733;48.744;9.176;2023-05-07T11:01:03;96563.97;;;30.53;30.09
80405;BME280;69733;48.744;9.176;2023-05-07T11:03:29;96571.69;;;30.47;30.05
80405;BME280;69733;48.744;9.176;2023-05-07T11:06:11;96575.31;;;30.32;29.70
80405;BME280;69733;48.744;9.176;2023-05-07T11:11:18;96569.97;;;30.04;30.04
80405;BME280;69733;48.744;9.176;2023-05-07T11:13:46;96564.78;;;29.99;30.17
80405;BME280;69733;48.744;9.176;2023-05-07T11:16:25;96561.38;;;29.71;30.41
80405;BME280;69733;48.744;9.176;2023-05-07T11:18:56;96562.22;;;29.56;30.28
80405;BME280;69733;48.744;9.176;2023-05-07T11:21:43;96559.16;;;29.26;30.21
80405;BME280;69733;48.744;9.176;2023-05-07T11:24:09;96564.50;;;29.07;30.57
80405;BME280;69733;48.744;9.176;2023-05-07T11:29:12;96548.16;;;29.10;30.62
80405;BME280;69733;48.744;9.176;2023-05-07T11:31:38;96560.25;;;29.09;30.98
80405;BME280;69733;48.744;9.176;2023-05-07T11:34:05;96558.84;;;29.00;31.11
80405;BME280;69733;48.744;9.176;2023-05-07T11:36:32;96558.56;;;28.89;31.19
80405;BME280;69733;48.744;9.176;2023-05-07T11:38:57;96558.50;;;28.58;31.63
80405;BME280;69733;48.744;9.176;2023-05-07T11:41:33;96556.34;;;28.24;31.60
80405;BME280;69733;48.744;9.176;2023-05-07T11:43:59;96557.78;;;28.05;31.83
80405;BME280;69733;48.744;9.176;2023-05-07T11:46:26;96551.06;;;27.91;31.83
80405;BME280;69733;48.744;9.176;2023-05-07T11:48:51;96549.84;;;27.76;31.70
80405;BME280;69733;48.744;9.176;2023-05-07T11:51:22;96545.19;;;27.64;31.94
80405;BME280;69733;48.744;9.176;2023-05-07T11:53:48;96550.69;;;27.52;32.15
80405;BME280;69733;48.744;9.176;2023-05-07T11:56:15;96560.72;;;27.48;32.20
80405;BME280;69733;48.744;9.176;2023-05-07T11:58:42;96568.56;;;27.38;32.52
80405;BME280;69733;48.744;9.176;2023-05-07T12:01:09;96573.66;;;27.15;32.88
80405;BME280;69733;48.744;9.176;2023-05-07T12:03:35;96580.13;;;26.98;32.73
80405;BME280;69733;48.744;9.176;2023-05-07T12:06:02;96578.50;;;26.85;32.75
80405;BME280;69733;48.744;9.176;2023-05-07T12:08:30;96581.75;;;26.79;33.17
80405;BME280;69733;48.744;9.176;2023-05-07T12:10:55;96582.53;;;26.67;33.14
80405;BME280;69733;48.744;9.176;2023-05-07T12:13:23;96579.97;;;26.29;33.60
80405;BME280;69733;48.744;9.176;2023-05-07T12:15:52;96581.63;;;26.01;34.31
80405;BME280;69733;48.744;9.176;2023-05-07T12:18:18;96576.56;;;25.70;34.68
80405;BME280;69733;48.744;9.176;2023-05-07T12:20:44;96577.00;;;25.43;35.49
80405;BME280;69733;48.744;9.176;2023-05-07T12:23:10;96583.47;;;25.00;36.51
80405;BME280;69733;48.744;9.176;2023-05-07T12:25:37;96581.88;;;24.82;36.48
80405;BME280;69733;48.744;9.176;2023-05-07T12:28:03;96588.34;;;24.52;36.94
80405;BME280;69733;48.744;9.176;2023-05-07T12:30:31;96595.75;;;24.25;36.76
80405;BME280;69733;48.744;9.176;2023-05-07T12:32:57;96596.03;;;23.98;36.82
80405;BME280;69733;48.744;9.176;2023-05-07T12:35:32;96607.31;;;23.74;37.22
80405;BME280;69733;48.744;9.176;2023-05-07T12:38:01;96628.31;;;23.35;38.71
80405;BME280;69733;48.744;9.176;2023-05-07T12:40:55;96639.81;;;22.78;41.52
80405;BME280;69733;48.744;9.176;2023-05-07T12:43:24;96644.00;;;22.04;44.44
80405;BME280;69733;48.744;9.176;2023-05-07T12:45:51;96640.91;;;21.02;47.74
80405;BME280;69733;48.744;9.176;2023-05-07T12:48:17;96649.25;;;20.22;49.31
80405;BME280;69733;48.744;9.176;2023-05-07T12:50:45;96637.38;;;19.80;49.80
80405;BME280;69733;48.744;9.176;2023-05-07T12:53:20;96651.69;;;19.62;49.87
80405;BME280;69733;48.744;9.176;2023-05-07T12:55:48;96663.41;;;19.53;50.32
80405;BME280;69733;48.744;9.176;2023-05-07T12:58:23;96680.78;;;19.42;50.81
80405;BME280;69733;48.744;9.176;2023-05-07T13:00:49;96687.00;;;19.13;51.55
80405;BME280;69733;48.744;9.176;2023-05-07T13:03:34;96693.44;;;18.88;52.21
80405;BME280;69733;48.744;9.176;2023-05-07T13:06:09;96711.19;;;18.66;53.96
80405;BME280;69733;48.744;9.176;2023-05-07T13:08:39;96712.78;;;18.28;57.69
80405;BME280;69733;48.744;9.176;2023-05-07T13:11:07;96719.56;;;18.20;94.39